Time;durP1;ratioP1;P1;durP2;ratioP2;P2;SDS_P1;SDS_P2;PMS_P1;PMS_P2;Temp;Humidity;BMP_temperature;BMP_pressure;BME280_temperature;BME280_humidity;BME280_pressure;Samples;Min_cycle;Max_cycle;Signal;HPM_P1;HPM_P2
2021/10/17 00:02:18;;;;;;;;;17.50;15.50;;;;;;;;5059438;28;11538;-77
2021/10/17 00:04:45;;;;;;;;;17.50;14.75;;;;;;;;5059236;28;11589;-78
2021/10/17 00:07:14;;;;;;;;;12.00;12.00;;;;;;;;5058967;28;11568;-78
2021/10/17 00:09:43;;;;;;;;;15.50;14.00;;;;;;;;5060421;28;11563;-78
2021/10/17 00:12:11;;;;;;;;;15.75;14.00;;;;;;;;5057363;28;11583;-77
2021/10/17 00:14:40;;;;;;;;;14.75;14.75;;;;;;;;5060767;28;11593;-79
2021/10/17 00:17:07;;;;;;;;;14.75;13.00;;;;;;;;5058956;28;11614;-82
2021/10/17 00:19:35;;;;;;;;;14.25;14.25;;;;;;;;5058317;28;11593;-77
2021/10/17 00:22:03;;;;;;;;;17.75;13.75;;;;;;;;5064036;28;11561;-80
2021/10/17 00:24:31;;;;;;;;;18.00;16.50;;;;;;;;5062714;28;11671;-79
2021/10/17 00:27:00;;;;;;;;;14.25;14.00;;;;;;;;5063881;28;11564;-80
2021/10/17 00:29:27;;;;;;;;;15.00;13.25;;;;;;;;5061363;28;11599;-82
2021/10/17 00:31:55;;;;;;;;;13.75;13.75;;;;;;;;5062975;28;11568;-77
2021/10/17 00:34:24;;;;;;;;;13.00;13.00;;;;;;;;5062817;28;11556;-78
2021/10/17 00:36:51;;;;;;;;;15.25;13.75;;;;;;;;5062442;28;11605;-76
2021/10/17 00:39:18;;;;;;;;;15.00;15.00;;;;;;;;5063638;28;11573;-81
2021/10/17 00:41:47;;;;;;;;;15.00;13.25;;;;;;;;5067209;28;11704;-82
2021/10/17 00:44:22;;;;;;;;;13.00;13.00;;;;;;;;5064078;28;11677;-79
2021/10/17 00:46:51;;;;;;;;;16.50;14.25;;;;;;;;5062665;28;12266;-85
2021/10/17 00:49:18;;;;;;;;;17.75;14.25;;;;;;;;5062902;28;12267;-78
2021/10/17 00:51:47;;;;;;;;;15.25;14.25;;;;;;;;5063960;28;11574;-78
2021/10/17 00:54:15;;;;;;;;;14.25;10.00;;;;;;;;5064372;28;11592;-77
2021/10/17 00:56:43;;;;;;;;;13.50;10.00;;;;;;;;5060551;28;11537;-80
2021/10/17 00:59:11;;;;;;;;;13.75;11.50;;;;;;;;5060506;28;11569;-84
2021/10/17 01:01:41;;;;;;;;;16.50;13.75;;;;;;;;5063303;28;11482;-80
2021/10/17 01:04:09;;;;;;;;;20.50;13.50;;;;;;;;5062545;28;11675;-83
2021/10/17 01:06:37;;;;;;;;;13.75;13.75;;;;;;;;5063365;28;11613;-87
2021/10/17 01:09:05;;;;;;;;;14.25;13.25;;;;;;;;5060172;28;11582;-85
2021/10/17 01:11:43;;;;;;;;;13.25;13.25;;;;;;;;5062095;28;11569;-86
2021/10/17 01:14:10;;;;;;;;;8.50;5.25;;;;;;;;5063558;28;11558;-86
2021/10/17 01:16:40;;;;;;;;;13.75;13.75;;;;;;;;5061678;28;11569;-82
2021/10/17 01:19:07;;;;;;;;;10.75;10.75;;;;;;;;5060451;28;11635;-80
2021/10/17 01:21:38;;;;;;;;;13.25;13.00;;;;;;;;5061073;28;12326;-81
2021/10/17 01:24:06;;;;;;;;;13.25;12.25;;;;;;;;5062903;28;11582;-81
2021/10/17 01:26:34;;;;;;;;;20.75;16.50;;;;;;;;5061991;28;11666;-84
2021/10/17 01:29:01;;;;;;;;;13.00;10.75;;;;;;;;5062757;28;12820;-79
2021/10/17 01:31:37;;;;;;;;;12.75;10.25;;;;;;;;5060695;28;11541;-77
2021/10/17 01:34:06;;;;;;;;;12.50;12.50;;;;;;;;5061707;28;11531;-85
2021/10/17 01:36:34;;;;;;;;;14.75;12.25;;;;;;;;5062748;28;11736;-80
2021/10/17 01:39:03;;;;;;;;;13.25;9.75;;;;;;;;5060826;28;11647;-80
2021/10/17 01:41:30;;;;;;;;;13.50;13.50;;;;;;;;5062192;28;11562;-76
2021/10/17 01:44:02;;;;;;;;;12.25;10.50;;;;;;;;5064023;28;11701;-77
2021/10/17 01:46:29;;;;;;;;;13.75;13.25;;;;;;;;5062238;28;11604;-84
2021/10/17 01:48:57;;;;;;;;;14.00;11.00;;;;;;;;5060907;28;11592;-81
2021/10/17 01:51:24;;;;;;;;;10.00;10.00;;;;;;;;5061317;28;11642;-80
2021/10/17 01:53:52;;;;;;;;;10.25;10.25;;;;;;;;5065213;28;11684;-76
2021/10/17 01:56:20;;;;;;;;;9.25;9.25;;;;;;;;5061633;28;11590;-78
2021/10/17 01:58:48;;;;;;;;;10.25;10.25;;;;;;;;5059315;28;11507;-78
2021/10/17 02:01:15;;;;;;;;;13.00;11.50;;;;;;;;5060581;28;11679;-77
2021/10/17 02:03:42;;;;;;;;;9.25;7.25;;;;;;;;5063010;28;11605;-78
2021/10/17 02:06:10;;;;;;;;;7.50;7.50;;;;;;;;5061136;28;11534;-86
2021/10/17 02:08:37;;;;;;;;;16.75;13.00;;;;;;;;5061291;28;11519;-83
2021/10/17 02:11:05;;;;;;;;;13.75;10.75;;;;;;;;5062083;28;11558;-77
2021/10/17 02:13:34;;;;;;;;;8.50;8.50;;;;;;;;5061366;28;11547;-83
2021/10/17 02:16:02;;;;;;;;;10.75;10.75;;;;;;;;5061461;28;12161;-81
2021/10/17 02:18:29;;;;;;;;;12.50;10.75;;;;;;;;5058720;28;11597;-77
2021/10/17 02:20:56;;;;;;;;;9.75;9.75;;;;;;;;5058315;28;11533;-81
2021/10/17 02:23:24;;;;;;;;;13.00;10.50;;;;;;;;5060724;28;12364;-78
2021/10/17 02:25:51;;;;;;;;;13.00;13.00;;;;;;;;5061958;28;11721;-85
2021/10/17 02:28:18;;;;;;;;;13.00;10.25;;;;;;;;5062657;28;11572;-85
2021/10/17 02:30:47;;;;;;;;;12.50;10.25;;;;;;;;5059647;28;11490;-79
2021/10/17 02:33:14;;;;;;;;;12.50;12.50;;;;;;;;5062000;28;11550;-83
2021/10/17 02:35:42;;;;;;;;;16.00;10.25;;;;;;;;5060976;28;11824;-81
2021/10/17 02:38:09;;;;;;;;;12.75;10.75;;;;;;;;5060934;28;11032;-80
2021/10/17 02:40:36;;;;;;;;;15.50;11.00;;;;;;;;5060389;28;11559;-78
2021/10/17 02:43:04;;;;;;;;;11.75;11.75;;;;;;;;5059570;28;11586;-80
2021/10/17 02:45:31;;;;;;;;;10.50;8.50;;;;;;;;5061761;28;12657;-82
2021/10/17 02:47:59;;;;;;;;;10.00;10.00;;;;;;;;5061331;28;11621;-77
2021/10/17 02:50:27;;;;;;;;;14.75;11.75;;;;;;;;5061624;28;11549;-82
2021/10/17 02:52:54;;;;;;;;;9.25;9.25;;;;;;;;5060969;28;11042;-76
2021/10/17 02:55:21;;;;;;;;;9.25;9.25;;;;;;;;5064496;28;11540;-76
2021/10/17 02:57:49;;;;;;;;;10.50;10.50;;;;;;;;5059067;28;11541;-79
2021/10/17 03:00:18;;;;;;;;;13.50;11.00;;;;;;;;5055264;28;11571;-81
2021/10/17 03:02:45;;;;;;;;;11.50;11.50;;;;;;;;5061192;28;11555;-76
2021/10/17 03:05:14;;;;;;;;;8.25;7.50;;;;;;;;5061259;28;11549;-83
2021/10/17 03:07:41;;;;;;;;;9.50;9.50;;;;;;;;5061202;28;11541;-76
2021/10/17 03:10:09;;;;;;;;;12.75;10.00;;;;;;;;5057586;28;11606;-86
2021/10/17 03:12:36;;;;;;;;;15.50;13.75;;;;;;;;5061274;28;11570;-84
2021/10/17 03:15:06;;;;;;;;;16.75;16.75;;;;;;;;5059803;28;12058;-77
2021/10/17 03:17:34;;;;;;;;;14.50;14.50;;;;;;;;5060525;28;11605;-78
2021/10/17 03:20:01;;;;;;;;;13.00;13.00;;;;;;;;5061465;28;11568;-83
2021/10/17 03:22:30;;;;;;;;;9.00;9.00;;;;;;;;5063422;28;11549;-84
2021/10/17 03:24:57;;;;;;;;;9.25;9.25;;;;;;;;5061756;28;11579;-84
2021/10/17 03:27:24;;;;;;;;;11.50;10.00;;;;;;;;5059771;28;11689;-80
2021/10/17 03:29:52;;;;;;;;;13.00;10.50;;;;;;;;5059880;28;11549;-77
2021/10/17 03:32:19;;;;;;;;;13.50;13.50;;;;;;;;5058712;28;11513;-78
2021/10/17 03:34:47;;;;;;;;;9.25;9.25;;;;;;;;5061195;28;11627;-80
2021/10/17 03:37:14;;;;;;;;;14.00;13.75;;;;;;;;5058736;28;11548;-86
2021/10/17 03:39:43;;;;;;;;;11.25;9.00;;;;;;;;5059753;28;11703;-81
2021/10/17 03:42:10;;;;;;;;;10.50;10.25;;;;;;;;5059912;28;11557;-84
2021/10/17 03:44:37;;;;;;;;;13.75;9.00;;;;;;;;5067405;28;11534;-79
2021/10/17 03:47:06;;;;;;;;;10.00;9.75;;;;;;;;5059733;28;11577;-78
2021/10/17 03:49:33;;;;;;;;;11.25;9.50;;;;;;;;5059854;28;11598;-78
2021/10/17 03:52:01;;;;;;;;;10.00;9.50;;;;;;;;5061349;28;11559;-78
2021/10/17 03:54:28;;;;;;;;;13.00;10.50;;;;;;;;5060537;28;11567;-76
2021/10/17 03:56:57;;;;;;;;;10.75;9.50;;;;;;;;5063067;28;11654;-79
2021/10/17 03:59:24;;;;;;;;;10.50;10.50;;;;;;;;5057940;28;11543;-79
2021/10/17 04:01:52;;;;;;;;;9.75;9.75;;;;;;;;5064080;28;11631;-85
2021/10/17 04:04:19;;;;;;;;;13.00;10.25;;;;;;;;5063657;28;11633;-87
2021/10/17 04:06:46;;;;;;;;;9.75;9.75;;;;;;;;5064221;28;11566;-80
2021/10/17 04:09:13;;;;;;;;;20.50;9.75;;;;;;;;5064117;28;12235;-77
2021/10/17 04:11:41;;;;;;;;;13.25;9.25;;;;;;;;5062779;28;11673;-77
2021/10/17 04:14:11;;;;;;;;;9.75;9.75;;;;;;;;5062794;28;11520;-81
2021/10/17 04:16:38;;;;;;;;;10.50;10.50;;;;;;;;5062203;28;11517;-75
2021/10/17 04:19:06;;;;;;;;;13.25;13.25;;;;;;;;5062185;28;11554;-79
2021/10/17 04:21:33;;;;;;;;;9.00;9.00;;;;;;;;5062675;28;11533;-77
2021/10/17 04:24:00;;;;;;;;;10.75;10.75;;;;;;;;5062570;28;11648;-80
2021/10/17 04:26:28;;;;;;;;;12.50;10.00;;;;;;;;5063753;28;11561;-83
2021/10/17 04:28:55;;;;;;;;;10.75;8.00;;;;;;;;5063587;28;11579;-82
2021/10/17 04:31:24;;;;;;;;;9.75;9.75;;;;;;;;5063433;28;11489;-81
2021/10/17 04:33:51;;;;;;;;;12.75;10.75;;;;;;;;5061393;28;11515;-76
2021/10/17 04:36:18;;;;;;;;;10.25;10.25;;;;;;;;5063910;28;11588;-77
2021/10/17 04:38:45;;;;;;;;;10.75;9.50;;;;;;;;5062875;28;11558;-78
2021/10/17 04:41:14;;;;;;;;;13.25;9.00;;;;;;;;5062087;28;11687;-82
2021/10/17 04:43:41;;;;;;;;;12.75;12.75;;;;;;;;5063478;28;11554;-82
2021/10/17 04:46:09;;;;;;;;;11.75;11.75;;;;;;;;5061456;28;11685;-81
2021/10/17 04:48:38;;;;;;;;;14.50;11.00;;;;;;;;5063324;28;12312;-76
2021/10/17 04:51:05;;;;;;;;;12.00;9.00;;;;;;;;5062731;28;11689;-84
2021/10/17 04:53:32;;;;;;;;;13.00;10.25;;;;;;;;5062196;28;11539;-83
2021/10/17 04:56:00;;;;;;;;;17.50;15.50;;;;;;;;5063824;28;11692;-76
2021/10/17 04:58:28;;;;;;;;;12.25;10.50;;;;;;;;5062544;28;11699;-76
2021/10/17 05:00:56;;;;;;;;;12.50;10.00;;;;;;;;5065006;28;11502;-82
2021/10/17 05:03:23;;;;;;;;;10.00;10.00;;;;;;;;5054431;28;11592;-78
2021/10/17 05:05:52;;;;;;;;;8.25;8.25;;;;;;;;5063928;28;11571;-80
2021/10/17 05:08:19;;;;;;;;;13.00;10.50;;;;;;;;5062140;28;11533;-78
2021/10/17 05:10:46;;;;;;;;;11.50;10.50;;;;;;;;5062037;28;11553;-78
2021/10/17 05:13:14;;;;;;;;;9.75;9.75;;;;;;;;5062793;28;11578;-80
2021/10/17 05:15:41;;;;;;;;;0.00;0.00;;;;;;;;5060840;28;11538;-79
2021/10/17 05:18:08;;;;;;;;;13.00;10.75;;;;;;;;5062773;28;11513;-82
2021/10/17 05:20:35;;;;;;;;;9.00;9.00;;;;;;;;5060664;28;11542;-79
2021/10/17 05:23:05;;;;;;;;;11.75;10.25;;;;;;;;5063109;28;11544;-79
2021/10/17 05:25:33;;;;;;;;;9.50;9.50;;;;;;;;5060618;28;12305;-75
2021/10/17 05:28:00;;;;;;;;;13.75;13.75;;;;;;;;5062554;28;11516;-76
2021/10/17 05:30:28;;;;;;;;;13.75;12.00;;;;;;;;5061529;28;11528;-78
2021/10/17 05:32:55;;;;;;;;;10.50;10.25;;;;;;;;5061151;28;11689;-80
2021/10/17 05:35:22;;;;;;;;;13.75;11.75;;;;;;;;5062720;28;11547;-81
2021/10/17 05:37:49;;;;;;;;;9.00;9.00;;;;;;;;5060894;28;11694;-77
2021/10/17 05:40:18;;;;;;;;;9.00;8.00;;;;;;;;5062649;28;11524;-81
2021/10/17 05:42:45;;;;;;;;;10.00;9.50;;;;;;;;5060808;28;11592;-78
2021/10/17 05:45:13;;;;;;;;;11.25;11.25;;;;;;;;5061392;28;11561;-81
2021/10/17 05:47:41;;;;;;;;;10.00;10.00;;;;;;;;5061052;28;11699;-76
2021/10/17 05:50:09;;;;;;;;;14.50;14.50;;;;;;;;5059473;28;11559;-83
2021/10/17 05:52:36;;;;;;;;;13.50;13.50;;;;;;;;5061153;28;12368;-85
2021/10/17 05:55:04;;;;;;;;;12.00;10.75;;;;;;;;5062868;28;11581;-82
2021/10/17 05:57:36;;;;;;;;;12.00;9.00;;;;;;;;5061164;28;11613;-82
2021/10/17 06:00:05;;;;;;;;;13.50;13.50;;;;;;;;5058769;28;11521;-82
2021/10/17 06:02:32;;;;;;;;;9.00;9.00;;;;;;;;5062535;28;11557;-83
2021/10/17 06:05:00;;;;;;;;;11.25;11.00;;;;;;;;5061121;28;11665;-87
2021/10/17 06:07:27;;;;;;;;;8.00;8.00;;;;;;;;5061602;28;11641;-77
2021/10/17 06:09:55;;;;;;;;;8.75;8.75;;;;;;;;5059150;28;12376;-79
2021/10/17 06:12:22;;;;;;;;;14.00;12.25;;;;;;;;5065174;28;11628;-81
2021/10/17 06:14:51;;;;;;;;;12.00;12.00;;;;;;;;5062043;28;11594;-81
2021/10/17 06:17:18;;;;;;;;;13.25;13.25;;;;;;;;5059733;28;11660;-79
2021/10/17 06:19:46;;;;;;;;;13.75;10.75;;;;;;;;5061519;28;11580;-83
2021/10/17 06:22:13;;;;;;;;;10.75;10.75;;;;;;;;5058378;28;11546;-80
2021/10/17 06:24:40;;;;;;;;;13.25;11.50;;;;;;;;5057798;28;11589;-74
2021/10/17 06:27:07;;;;;;;;;10.75;9.00;;;;;;;;5060273;28;11647;-75
2021/10/17 06:29:35;;;;;;;;;13.75;13.00;;;;;;;;5056077;28;11587;-73
2021/10/17 06:32:03;;;;;;;;;13.00;12.00;;;;;;;;5056988;28;11525;-74
2021/10/17 06:34:31;;;;;;;;;10.00;9.75;;;;;;;;5058925;28;11608;-73
2021/10/17 06:37:01;;;;;;;;;12.00;8.25;;;;;;;;5061932;28;11615;-73
2021/10/17 06:39:28;;;;;;;;;13.75;10.00;;;;;;;;5057489;28;11552;-73
2021/10/17 06:41:56;;;;;;;;;10.00;9.75;;;;;;;;5062143;28;11551;-73
2021/10/17 06:44:23;;;;;;;;;9.50;9.50;;;;;;;;5059646;28;11529;-74
2021/10/17 06:46:52;;;;;;;;;13.00;11.00;;;;;;;;5059060;28;11540;-73
2021/10/17 06:49:21;;;;;;;;;11.75;10.50;;;;;;;;5060276;28;11606;-73
2021/10/17 06:51:48;;;;;;;;;12.50;10.75;;;;;;;;5057137;28;11621;-72
2021/10/17 06:54:16;;;;;;;;;10.75;10.75;;;;;;;;5057894;28;12328;-73
2021/10/17 06:56:45;;;;;;;;;11.00;10.00;;;;;;;;5057172;28;11563;-72
2021/10/17 06:59:12;;;;;;;;;8.75;8.75;;;;;;;;5057533;28;11541;-72
2021/10/17 07:01:40;;;;;;;;;10.25;10.25;;;;;;;;5058567;28;11470;-71
2021/10/17 07:04:07;;;;;;;;;13.75;10.50;;;;;;;;5057922;28;11548;-72
2021/10/17 07:06:36;;;;;;;;;9.25;7.25;;;;;;;;5059256;28;11530;-71
2021/10/17 07:09:03;;;;;;;;;10.00;8.50;;;;;;;;5057874;28;11523;-73
2021/10/17 07:11:30;;;;;;;;;8.75;8.75;;;;;;;;5059636;28;11595;-72
2021/10/17 07:13:58;;;;;;;;;10.25;10.25;;;;;;;;5058458;28;11510;-73
2021/10/17 07:16:25;;;;;;;;;10.00;10.00;;;;;;;;5060284;28;11553;-71
2021/10/17 07:18:52;;;;;;;;;16.75;16.00;;;;;;;;5060235;28;11555;-73
2021/10/17 07:21:20;;;;;;;;;17.75;17.00;;;;;;;;5059334;28;12216;-72
2021/10/17 07:23:48;;;;;;;;;17.50;17.50;;;;;;;;5056889;28;12349;-71
2021/10/17 07:26:15;;;;;;;;;14.00;13.50;;;;;;;;5058616;28;11633;-70
2021/10/17 07:28:43;;;;;;;;;14.75;14.75;;;;;;;;5059873;28;11565;-73
2021/10/17 07:31:10;;;;;;;;;22.50;20.50;;;;;;;;5057832;28;12424;-72
2021/10/17 07:33:38;;;;;;;;;27.75;27.75;;;;;;;;5058563;28;11686;-72
2021/10/17 07:36:06;;;;;;;;;39.25;34.50;;;;;;;;5059835;28;11692;-72
2021/10/17 07:38:34;;;;;;;;;29.75;27.50;;;;;;;;5057131;28;11595;-72
2021/10/17 07:41:03;;;;;;;;;66.67;53.33;;;;;;;;5059905;28;11597;-72
2021/10/17 07:43:30;;;;;;;;;53.25;46.75;;;;;;;;5057782;28;11625;-72
2021/10/17 07:46:01;;;;;;;;;73.67;59.00;;;;;;;;5058026;28;11743;-73
2021/10/17 07:48:29;;;;;;;;;75.00;61.67;;;;;;;;5049120;28;9722;-72
2021/10/17 07:50:56;;;;;;;;;70.67;57.67;;;;;;;;5058544;28;8893;-73
2021/10/17 07:53:23;;;;;;;;;71.00;57.33;;;;;;;;5061559;28;8883;-72
2021/10/17 07:55:51;;;;;;;;;60.25;50.25;;;;;;;;5059743;28;11585;-72
2021/10/17 07:58:20;;;;;;;;;47.25;39.25;;;;;;;;5058994;28;11659;-73
2021/10/17 08:00:47;;;;;;;;;51.00;43.25;;;;;;;;5046430;28;12375;-73
2021/10/17 08:03:14;;;;;;;;;46.00;38.25;;;;;;;;5060022;28;11575;-72
2021/10/17 08:05:41;;;;;;;;;45.00;40.75;;;;;;;;5057057;28;11668;-72
2021/10/17 08:08:09;;;;;;;;;46.50;42.00;;;;;;;;5059515;28;11722;-72
2021/10/17 08:10:36;;;;;;;;;53.00;47.25;;;;;;;;5058139;28;11600;-73
2021/10/17 08:13:07;;;;;;;;;48.75;43.00;;;;;;;;5061815;28;11615;-74
2021/10/17 08:15:35;;;;;;;;;39.50;35.50;;;;;;;;5059502;28;11575;-74
2021/10/17 08:18:03;;;;;;;;;40.25;35.00;;;;;;;;5060220;28;11567;-73
2021/10/17 08:20:30;;;;;;;;;35.75;33.00;;;;;;;;5059805;28;11595;-74
2021/10/17 08:22:58;;;;;;;;;35.50;31.00;;;;;;;;5058505;28;11574;-74
2021/10/17 08:25:25;;;;;;;;;16.25;14.50;;;;;;;;5060323;28;11586;-73
2021/10/17 08:27:52;;;;;;;;;42.00;40.75;;;;;;;;5061548;28;11547;-73
2021/10/17 08:30:20;;;;;;;;;27.50;24.50;;;;;;;;5062217;28;11606;-73
2021/10/17 08:32:48;;;;;;;;;40.75;37.50;;;;;;;;5060870;28;11604;-73
2021/10/17 08:35:15;;;;;;;;;28.00;25.25;;;;;;;;5061807;28;11621;-74
2021/10/17 08:37:43;;;;;;;;;22.50;20.50;;;;;;;;5061118;28;11484;-73
2021/10/17 08:40:11;;;;;;;;;22.25;20.50;;;;;;;;5038136;28;11478;-74
2021/10/17 08:42:38;;;;;;;;;29.25;24.75;;;;;;;;5044522;28;11559;-76
2021/10/17 08:45:07;;;;;;;;;25.75;25.75;;;;;;;;5044879;28;11502;-75
2021/10/17 08:47:35;;;;;;;;;29.75;29.75;;;;;;;;5044682;28;11490;-74
2021/10/17 08:50:05;;;;;;;;;26.00;25.25;;;;;;;;5037640;28;11499;-75
2021/10/17 08:52:32;;;;;;;;;24.00;23.50;;;;;;;;5040301;28;11346;-74
2021/10/17 08:55:00;;;;;;;;;24.00;21.00;;;;;;;;5041419;28;11532;-75
2021/10/17 08:57:28;;;;;;;;;21.25;21.00;;;;;;;;5037823;28;11173;-76
2021/10/17 08:59:57;;;;;;;;;22.50;22.50;;;;;;;;5024619;28;11078;-74
2021/10/17 09:02:25;;;;;;;;;27.75;23.50;;;;;;;;5038482;28;10809;-76
2021/10/17 09:05:00;;;;;;;;;23.75;23.75;;;;;;;;5041518;28;10830;-74
2021/10/17 09:07:29;;;;;;;;;22.25;20.75;;;;;;;;5044016;28;11614;-74
2021/10/17 09:10:08;;;;;;;;;45.00;41.00;;;;;;;;5043398;28;10473;-75
2021/10/17 09:12:36;;;;;;;;;14.25;12.50;;;;;;;;5044740;28;11201;-75
2021/10/17 09:15:22;;;;;;;;;20.25;20.25;;;;;;;;5043149;28;10964;-76
2021/10/17 09:18:06;;;;;;;;;9.00;5.75;;;;;;;;5042643;28;11464;-75
2021/10/17 09:20:36;;;;;;;;;16.75;14.25;;;;;;;;5044547;28;9964;-75
2021/10/17 09:23:06;;;;;;;;;30.25;26.25;;;;;;;;5026820;28;9873;-77
2021/10/17 09:25:35;;;;;;;;;15.25;15.25;;;;;;;;5042296;28;10002;-76
2021/10/17 09:28:02;;;;;;;;;15.75;15.75;;;;;;;;5041385;28;10070;-75
2021/10/17 09:30:30;;;;;;;;;15.25;15.25;;;;;;;;5041925;28;10716;-76
2021/10/17 09:33:11;;;;;;;;;11.67;9.33;;;;;;;;5042587;28;9661;-74
2021/10/17 09:35:39;;;;;;;;;12.33;10.33;;;;;;;;5042542;28;9438;-74
2021/10/17 09:38:07;;;;;;;;;8.67;7.33;;;;;;;;5048494;28;9261;-73
2021/10/17 09:40:36;;;;;;;;;13.33;11.00;;;;;;;;5064319;28;9363;-73
2021/10/17 09:43:09;;;;;;;;;10.00;10.00;;;;;;;;5063414;28;10056;-73
2021/10/17 09:45:37;;;;;;;;;13.33;10.00;;;;;;;;5064534;28;9490;-74
2021/10/17 09:48:04;;;;;;;;;15.00;13.33;;;;;;;;5066110;28;9265;-73
2021/10/17 09:50:32;;;;;;;;;17.00;12.00;;;;;;;;5062905;28;10325;-74
2021/10/17 09:53:03;;;;;;;;;12.33;10.00;;;;;;;;5063467;28;9344;-74
2021/10/17 09:55:32;;;;;;;;;15.67;15.67;;;;;;;;5065159;28;9118;-74
2021/10/17 09:58:03;;;;;;;;;12.33;12.33;;;;;;;;5064298;28;9305;-74
2021/10/17 10:00:33;;;;;;;;;14.67;12.67;;;;;;;;5055782;28;9871;-75
2021/10/17 10:03:02;;;;;;;;;14.67;12.67;;;;;;;;5062175;28;8992;-75
2021/10/17 10:05:29;;;;;;;;;14.33;14.33;;;;;;;;5060829;28;9795;-74
2021/10/17 10:08:01;;;;;;;;;16.67;12.33;;;;;;;;5059277;28;9103;-72
2021/10/17 10:10:29;;;;;;;;;17.67;17.67;;;;;;;;5060560;28;9884;-74
2021/10/17 10:13:02;;;;;;;;;11.33;11.00;;;;;;;;5064097;28;9338;-74
2021/10/17 10:15:31;;;;;;;;;11.00;11.00;;;;;;;;5062601;28;9788;-74
2021/10/17 10:17:59;;;;;;;;;11.50;10.50;;;;;;;;5064073;28;8855;-72
2021/10/17 10:20:27;;;;;;;;;7.75;7.75;;;;;;;;5061500;28;8887;-73
2021/10/17 10:22:54;;;;;;;;;10.25;10.25;;;;;;;;5064265;28;9760;-73
2021/10/17 10:25:22;;;;;;;;;14.00;12.00;;;;;;;;5064068;28;8917;-74
2021/10/17 10:27:50;;;;;;;;;9.00;9.00;;;;;;;;5064750;28;8917;-73
2021/10/17 10:30:35;;;;;;;;;7.50;7.50;;;;;;;;5063751;28;8846;-74
2021/10/17 10:33:19;;;;;;;;;12.00;10.00;;;;;;;;5064313;28;8904;-73
2021/10/17 10:36:07;;;;;;;;;11.50;9.75;;;;;;;;5052404;28;8912;-73
2021/10/17 10:39:14;;;;;;;;;11.00;7.25;;;;;;;;5063729;28;9700;-73
2021/10/17 10:41:57;;;;;;;;;10.75;7.75;;;;;;;;5063698;28;8917;-73
2021/10/17 10:44:27;;;;;;;;;9.50;9.50;;;;;;;;5064660;28;8931;-73
2021/10/17 10:46:57;;;;;;;;;8.00;6.25;;;;;;;;5063474;28;8897;-74
2021/10/17 10:49:42;;;;;;;;;10.00;9.00;;;;;;;;5064431;28;8913;-73
2021/10/17 10:52:11;;;;;;;;;8.00;6.25;;;;;;;;5064280;28;8874;-73
2021/10/17 10:54:38;;;;;;;;;7.00;7.00;;;;;;;;5063709;28;8890;-73
2021/10/17 10:57:20;;;;;;;;;5.75;5.75;;;;;;;;5064602;28;8882;-74
2021/10/17 11:00:05;;;;;;;;;6.00;6.00;;;;;;;;5062671;28;8866;-73
2021/10/17 11:02:34;;;;;;;;;8.50;5.25;;;;;;;;5062349;28;10124;-74
2021/10/17 11:05:09;;;;;;;;;5.00;5.00;;;;;;;;5063706;28;8843;-74
2021/10/17 11:07:38;;;;;;;;;7.25;6.00;;;;;;;;5063248;28;8862;-74
2021/10/17 11:13:37;;;;;;;;;4.00;4.00;;;;;;;;5062155;28;8938;-74
2021/10/17 11:16:05;;;;;;;;;8.75;6.75;;;;;;;;5062913;28;8878;-74
2021/10/17 11:18:37;;;;;;;;;6.00;6.00;;;;;;;;5064164;28;8862;-74
2021/10/17 11:21:06;;;;;;;;;4.25;4.25;;;;;;;;5062878;28;8867;-74
2021/10/17 11:23:35;;;;;;;;;6.25;5.00;;;;;;;;5064253;28;8914;-74
2021/10/17 11:26:05;;;;;;;;;3.00;3.00;;;;;;;;5062771;28;8858;-74
2021/10/17 11:28:33;;;;;;;;;5.00;5.00;;;;;;;;5064279;28;8891;-74
2021/10/17 11:31:10;;;;;;;;;7.25;5.75;;;;;;;;5062837;28;8791;-74
2021/10/17 11:33:41;;;;;;;;;7.25;7.25;;;;;;;;5063403;28;8902;-74
2021/10/17 11:36:11;;;;;;;;;4.00;4.00;;;;;;;;5063926;28;8866;-73
2021/10/17 11:38:38;;;;;;;;;3.75;2.50;;;;;;;;5062620;28;9743;-74
2021/10/17 11:41:08;;;;;;;;;4.50;4.50;;;;;;;;5064442;28;8878;-74
2021/10/17 11:43:41;;;;;;;;;9.00;9.00;;;;;;;;5063293;28;8874;-73
2021/10/17 11:46:10;;;;;;;;;4.25;4.25;;;;;;;;5063681;28;8897;-73
2021/10/17 11:48:39;;;;;;;;;7.25;5.00;;;;;;;;5062489;28;8858;-74
2021/10/17 11:51:10;;;;;;;;;5.25;5.25;;;;;;;;5062689;28;8889;-74
2021/10/17 11:53:38;;;;;;;;;4.75;3.75;;;;;;;;5064154;28;8866;-73
2021/10/17 11:56:10;;;;;;;;;4.75;4.75;;;;;;;;5063587;28;8882;-73
2021/10/17 11:58:38;;;;;;;;;5.00;5.00;;;;;;;;5062005;28;8932;-75
2021/10/17 12:01:10;;;;;;;;;4.00;4.00;;;;;;;;5061731;28;8799;-75
2021/10/17 12:03:40;;;;;;;;;4.50;4.50;;;;;;;;5063342;28;8905;-73
2021/10/17 12:06:15;;;;;;;;;4.00;4.00;;;;;;;;5063274;28;9630;-73
2021/10/17 12:08:44;;;;;;;;;5.00;4.00;;;;;;;;5062094;28;9648;-73
2021/10/17 12:11:12;;;;;;;;;6.00;4.00;;;;;;;;5063894;28;8906;-74
2021/10/17 12:13:42;;;;;;;;;4.00;4.00;;;;;;;;5060607;28;8869;-74
2021/10/17 12:16:11;;;;;;;;;4.00;3.75;;;;;;;;5063737;28;8882;-74
2021/10/17 12:18:44;;;;;;;;;4.00;4.00;;;;;;;;5066997;28;8883;-74
2021/10/17 12:21:12;;;;;;;;;2.00;2.00;;;;;;;;5066404;28;8871;-74
2021/10/17 12:23:40;;;;;;;;;4.00;4.00;;;;;;;;5067627;28;8847;-74
2021/10/17 12:26:08;;;;;;;;;6.25;5.00;;;;;;;;5065923;28;8866;-74
2021/10/17 12:28:35;;;;;;;;;4.25;4.25;;;;;;;;5067438;28;8874;-74
2021/10/17 12:31:03;;;;;;;;;4.00;4.00;;;;;;;;5065315;28;8803;-74
2021/10/17 12:33:36;;;;;;;;;5.50;5.50;;;;;;;;5067351;28;8900;-74
2021/10/17 12:36:06;;;;;;;;;4.60;3.00;;;;;;;;5066633;28;8854;-74
2021/10/17 12:38:35;;;;;;;;;4.80;4.80;;;;;;;;5065855;28;8879;-74
2021/10/17 12:41:06;;;;;;;;;4.00;4.00;;;;;;;;5067145;28;8877;-74
2021/10/17 12:43:36;;;;;;;;;6.20;5.00;;;;;;;;5066002;28;8867;-74
2021/10/17 12:46:13;;;;;;;;;3.40;3.40;;;;;;;;5066876;28;8862;-74
2021/10/17 12:48:41;;;;;;;;;4.00;4.00;;;;;;;;5064600;28;8898;-74
2021/10/17 12:51:31;;;;;;;;;4.60;4.60;;;;;;;;5066822;28;8862;-73
2021/10/17 12:54:13;;;;;;;;;5.20;5.20;;;;;;;;5066928;28;8858;-74
2021/10/17 12:56:43;;;;;;;;;4.60;3.60;;;;;;;;5065448;28;10183;-74
2021/10/17 12:59:12;;;;;;;;;4.20;4.20;;;;;;;;5066594;28;8866;-73
2021/10/17 13:01:58;;;;;;;;;5.20;4.00;;;;;;;;5065076;28;9624;-74
2021/10/17 13:04:38;;;;;;;;;4.00;4.00;;;;;;;;5098456;28;8875;-74
2021/10/17 13:07:07;;;;;;;;;4.00;4.00;;;;;;;;5065184;28;8878;-74
2021/10/17 13:09:42;;;;;;;;;2.00;2.00;;;;;;;;5065167;28;8850;-74
2021/10/17 13:12:22;;;;;;;;;6.20;6.20;;;;;;;;5057350;28;8905;-73
2021/10/17 13:15:00;;;;;;;;;3.00;3.00;;;;;;;;5077467;28;8900;-74
2021/10/17 13:17:28;;;;;;;;;3.00;3.00;;;;;;;;5064477;28;8886;-75
2021/10/17 13:19:57;;;;;;;;;3.20;3.20;;;;;;;;5062658;28;8857;-73
2021/10/17 13:22:26;;;;;;;;;3.60;3.60;;;;;;;;5065134;28;8951;-74
2021/10/17 13:24:54;;;;;;;;;4.00;4.00;;;;;;;;5066293;28;8870;-74
2021/10/17 13:27:22;;;;;;;;;2.00;2.00;;;;;;;;5064620;28;8858;-74
2021/10/17 13:29:50;;;;;;;;;3.60;3.60;;;;;;;;5066026;28;8878;-74
2021/10/17 13:32:17;;;;;;;;;8.00;6.00;;;;;;;;5065168;28;8849;-74
2021/10/17 13:34:45;;;;;;;;;2.20;2.20;;;;;;;;5065731;28;8897;-74
2021/10/17 13:37:12;;;;;;;;;4.00;4.00;;;;;;;;5065974;28;9709;-74
2021/10/17 13:39:41;;;;;;;;;2.20;2.20;;;;;;;;5064636;28;9020;-73
2021/10/17 13:42:08;;;;;;;;;4.00;4.00;;;;;;;;5064631;28;8883;-74
2021/10/17 13:44:36;;;;;;;;;5.20;5.20;;;;;;;;5064489;28;8892;-74
2021/10/17 13:47:03;;;;;;;;;4.00;4.00;;;;;;;;5065792;28;8890;-74
2021/10/17 13:49:31;;;;;;;;;5.00;3.00;;;;;;;;5064591;28;8886;-73
2021/10/17 13:51:58;;;;;;;;;4.60;4.60;;;;;;;;5064074;28;8879;-73
2021/10/17 13:54:25;;;;;;;;;5.40;4.00;;;;;;;;5063961;28;9600;-73
2021/10/17 13:56:55;;;;;;;;;5.80;4.00;;;;;;;;5065084;28;8889;-73
2021/10/17 13:59:23;;;;;;;;;4.00;4.00;;;;;;;;5065361;28;8882;-73
2021/10/17 14:01:51;;;;;;;;;5.00;4.00;;;;;;;;5063753;28;8835;-74
2021/10/17 14:04:18;;;;;;;;;4.00;4.00;;;;;;;;5065562;28;8900;-73
2021/10/17 14:06:47;;;;;;;;;4.80;4.80;;;;;;;;5064205;28;8908;-73
2021/10/17 14:09:16;;;;;;;;;4.60;4.00;;;;;;;;5063723;28;8858;-73
2021/10/17 14:11:44;;;;;;;;;4.00;4.00;;;;;;;;5051883;28;9008;-73
2021/10/17 14:14:14;;;;;;;;;4.40;4.40;;;;;;;;5064790;28;8985;-74
2021/10/17 14:16:41;;;;;;;;;4.00;4.00;;;;;;;;5065344;28;8855;-74
2021/10/17 14:19:08;;;;;;;;;4.20;4.20;;;;;;;;5063483;28;8935;-74
2021/10/17 14:21:36;;;;;;;;;2.80;2.80;;;;;;;;5065333;28;8890;-74
2021/10/17 14:24:03;;;;;;;;;4.00;4.00;;;;;;;;5063858;28;8881;-73
2021/10/17 14:26:31;;;;;;;;;4.25;4.25;;;;;;;;5064603;28;8862;-74
2021/10/17 14:28:58;;;;;;;;;6.75;6.00;;;;;;;;5064052;28;8881;-74
2021/10/17 14:31:27;;;;;;;;;3.50;3.50;;;;;;;;5061739;28;8839;-74
2021/10/17 14:33:54;;;;;;;;;4.50;4.50;;;;;;;;5065156;28;8854;-74
2021/10/17 14:36:21;;;;;;;;;3.00;3.00;;;;;;;;5063763;28;8875;-74
2021/10/17 14:38:49;;;;;;;;;4.00;4.00;;;;;;;;5063830;28;8893;-73
2021/10/17 14:41:16;;;;;;;;;4.75;4.75;;;;;;;;5062648;28;8874;-73
2021/10/17 14:43:44;;;;;;;;;3.00;3.00;;;;;;;;5064909;28;8843;-73
2021/10/17 14:46:12;;;;;;;;;5.25;3.75;;;;;;;;5063647;28;9664;-74
2021/10/17 14:48:40;;;;;;;;;4.00;3.25;;;;;;;;5064416;28;8882;-74